Time,TemperatureF,DewpointF,PressureIn,WindDirection,WindDirectionDegrees,WindSpeedMPH,WindSpeedGustMPH,Humidity,HourlyPrecipIn,Conditions,Clouds,dailyrainin,SoftwareType,DateUTC
2013-06-17 00:01:00,58.3,54.1,28.97,ESE,112,0.0,0.0,86,0.00,,---,0.00,VWS V14.01,2013-06-17 04:01:00,
2013-06-17 00:06:00,58.3,54.1,28.97,ESE,112,0.0,0.0,86,0.00,,---,0.00,VWS V14.01,2013-06-17 04:06:00,
2013-06-17 00:11:00,58.3,54.1,28.97,SSW,202,2.9,2.9,86,0.00,,---,0.00,VWS V14.01,2013-06-17 04:11:00,
2013-06-17 00:16:00,58.1,53.9,28.97,West,270,0.0,0.0,86,0.00,,---,0.00,VWS V14.01,2013-06-17 04:16:00,
2013-06-17 00:21:00,58.1,53.9,28.97,NNW,338,0.0,0.0,86,0.00,,---,0.00,VWS V14.01,2013-06-17 04:21:00,
2013-06-17 00:26:00,58.1,53.9,28.97,NNW,338,0.0,0.0,86,0.00,,---,0.00,VWS V14.01,2013-06-17 04:26:00,
2013-06-17 00:31:00,58.1,53.9,28.97,NNW,338,0.0,0.0,86,0.00,,---,0.00,VWS V14.01,2013-06-17 04:31:00,
2013-06-17 00:36:00,58.1,53.9,28.97,NNE,22,0.0,0.0,86,0.00,,---,0.00,VWS V14.01,2013-06-17 04:36:00,
2013-06-17 00:41:00,58.1,53.9,28.97,NNE,22,0.0,0.0,86,0.00,,---,0.00,VWS V14.01,2013-06-17 04:41:00,
2013-06-17 00:46:00,57.9,53.8,28.97,NNE,22,0.0,0.0,86,0.00,,---,0.00,VWS V14.01,2013-06-17 04:46:00,
2013-06-17 00:51:00,57.9,53.8,28.97,NNE,22,0.0,0.0,86,0.00,,---,0.00,VWS V14.01,2013-06-17 04:51:00,
2013-06-17 00:56:00,57.9,54.1,28.97,NNE,22,0.0,0.0,87,0.00,,---,0.00,VWS V14.01,2013-06-17 04:56:00,
2013-06-17 01:01:00,57.7,53.9,28.97,NNE,22,0.0,0.0,87,0.00,,---,0.00,VWS V14.01,2013-06-17 05:01:00,
2013-06-17 01:06:00,57.7,53.9,28.97,NNE,22,0.0,0.0,87,0.00,,---,0.00,VWS V14.01,2013-06-17 05:06:00,
2013-06-17 01:11:00,57.6,53.7,28.97,NNE,22,0.0,0.0,87,0.00,,---,0.00,VWS V14.01,2013-06-17 05:11:00,
2013-06-17 01:16:00,57.6,53.7,28.97,NNE,22,0.0,0.0,87,0.00,,---,0.00,VWS V14.01,2013-06-17 05:16:00,
2013-06-17 01:21:00,57.6,53.7,28.97,NNE,22,0.0,0.0,87,0.00,,---,0.00,VWS V14.01,2013-06-17 05:21:00,
2013-06-17 01:26:00,57.6,53.7,28.97,NNE,22,0.0,0.0,87,0.00,,---,0.00,VWS V14.01,2013-06-17 05:26:00,
2013-06-17 01:31:00,57.6,53.7,28.97,NNE,22,0.0,0.0,87,0.00,,---,0.00,VWS V14.01,2013-06-17 05:31:00,
2013-06-17 01:36:00,57.6,53.7,28.97,NNE,22,0.0,0.0,87,0.00,,---,0.00,VWS V14.01,2013-06-17 05:36:00,
2013-06-17 01:41:00,57.2,53.4,28.97,NNE,22,0.0,0.0,87,0.00,,---,0.00,VWS V14.01,2013-06-17 05:41:00,
2013-06-17 01:46:00,57.0,53.5,28.94,NNE,22,0.0,0.0,88,0.00,,---,0.00,VWS V14.01,2013-06-17 05:46:00,
2013-06-17 01:51:00,56.7,52.8,28.94,NNE,22,0.0,0.0,87,0.00,,---,0.00,VWS V14.01,2013-06-17 05:51:00,
2013-06-17 01:56:00,56.5,52.7,28.94,NNE,22,0.0,0.0,87,0.00,,---,0.00,VWS V14.01,2013-06-17 05:56:00,
2013-06-17 02:01:00,56.1,52.3,28.94,NNE,22,0.0,0.0,87,0.00,,---,0.00,VWS V14.01,2013-06-17 06:01:00,
2013-06-17 02:06:00,55.9,52.1,28.94,NNE,22,0.0,0.0,87,0.00,,---,0.00,VWS V14.01,2013-06-17 06:06:00,
2013-06-17 02:11:00,55.8,52.0,28.94,NNE,22,0.0,0.0,87,0.00,,---,0.00,VWS V14.01,2013-06-17 06:11:00,
2013-06-17 02:16:00,55.8,52.0,28.94,NE,45,0.0,0.0,87,0.00,,---,0.00,VWS V14.01,2013-06-17 06:16:00,
2013-06-17 02:21:00,55.6,51.8,28.94,NE,45,0.0,0.0,87,0.00,,---,0.00,VWS V14.01,2013-06-17 06:21:00,
2013-06-17 02:26:00,55.4,51.6,28.94,NE,45,0.0,0.0,87,0.00,,---,0.00,VWS V14.01,2013-06-17 06:26:00,
2013-06-17 02:31:00,55.2,51.7,28.94,NE,45,0.0,0.0,88,0.00,,---,0.00,VWS V14.01,2013-06-17 06:31:00,
2013-06-17 02:36:00,54.9,51.4,28.94,NE,45,0.0,0.0,88,0.00,,---,0.00,VWS V14.01,2013-06-17 06:36:00,
2013-06-17 02:41:00,54.7,51.2,28.94,WNW,292,0.0,0.0,88,0.00,,---,0.00,VWS V14.01,2013-06-17 06:41:00,
2013-06-17 02:46:00,54.5,51.0,28.97,WNW,292,0.0,0.0,88,0.00,,---,0.00,VWS V14.01,2013-06-17 06:46:00,
2013-06-17 02:51:00,54.1,50.7,28.97,West,270,0.0,0.0,88,0.00,,---,0.00,VWS V14.01,2013-06-17 06:51:00,
2013-06-17 02:56:00,54.0,50.5,28.97,West,270,0.0,0.0,88,0.00,,---,0.00,VWS V14.01,2013-06-17 06:56:00,
2013-06-17 03:01:00,53.8,50.3,28.97,SE,135,0.0,0.0,88,0.00,,---,0.00,VWS V14.01,2013-06-17 07:01:00,
2013-06-17 03:06:00,53.8,50.3,28.97,ESE,112,0.0,0.0,88,0.00,,---,0.00,VWS V14.01,2013-06-17 07:06:00,
2013-06-17 03:11:00,53.6,50.1,28.97,ESE,112,0.0,0.0,88,0.00,,---,0.00,VWS V14.01,2013-06-17 07:11:00,
2013-06-17 03:16:00,53.6,50.1,28.97,ESE,112,0.0,0.0,88,0.00,,---,0.00,VWS V14.01,2013-06-17 07:16:00,
2013-06-17 03:21:00,53.6,50.1,28.97,ESE,112,0.0,0.0,88,0.00,,---,0.00,VWS V14.01,2013-06-17 07:21:00,
2013-06-17 03:26:00,53.8,50.3,28.97,East,90,0.0,0.0,88,0.00,,---,0.00,VWS V14.01,2013-06-17 07:26:00,
2013-06-17 03:30:00,53.6,50.1,28.97,East,90,0.0,0.0,88,0.00,,---,0.00,VWS V14.01,2013-06-17 07:30:00,
2013-06-17 03:36:00,53.8,50.3,28.97,East,90,0.0,0.0,88,0.00,,---,0.00,VWS V14.01,2013-06-17 07:36:00,
2013-06-17 03:40:00,53.6,50.1,28.97,East,90,0.0,0.0,88,0.00,,---,0.00,VWS V14.01,2013-06-17 07:40:00,
2013-06-17 03:45:00,53.8,50.3,28.97,East,90,0.0,0.0,88,0.00,,---,0.00,VWS V14.01,2013-06-17 07:45:00,
2013-06-17 03:50:00,53.8,50.6,28.97,ENE,68,0.0,0.0,89,0.00,,---,0.00,VWS V14.01,2013-06-17 07:50:00,
2013-06-17 03:55:00,53.8,50.6,28.97,ENE,68,0.0,0.0,89,0.00,,---,0.00,VWS V14.01,2013-06-17 07:55:00,
2013-06-17 04:00:00,53.6,50.4,28.97,ENE,68,0.0,0.0,89,0.00,,---,0.00,VWS V14.01,2013-06-17 08:00:00,
2013-06-17 04:05:00,53.6,50.4,28.97,ENE,68,0.0,0.0,89,0.00,,---,0.00,VWS V14.01,2013-06-17 08:05:00,
2013-06-17 04:10:00,53.4,50.3,28.97,ENE,68,0.0,0.0,89,0.00,,---,0.00,VWS V14.01,2013-06-17 08:10:00,
2013-06-17 04:15:00,53.2,50.1,28.97,ENE,68,0.0,0.0,89,0.00,,---,0.00,VWS V14.01,2013-06-17 08:15:00,
2013-06-17 04:20:00,53.1,49.9,28.97,ENE,68,0.0,0.0,89,0.00,,---,0.00,VWS V14.01,2013-06-17 08:20:00,
2013-06-17 04:25:00,53.1,49.9,28.97,ENE,68,0.0,0.0,89,0.00,,---,0.00,VWS V14.01,2013-06-17 08:25:00,
2013-06-17 04:30:00,53.2,50.1,28.97,ENE,68,0.0,0.0,89,0.00,,---,0.00,VWS V14.01,2013-06-17 08:30:00,
2013-06-17 04:35:00,53.2,50.1,28.97,ENE,68,0.0,0.0,89,0.00,,---,0.00,VWS V14.01,2013-06-17 08:35:00,
2013-06-17 04:40:00,53.1,49.9,28.97,ENE,68,0.0,0.0,89,0.00,,---,0.00,VWS V14.01,2013-06-17 08:40:00,
2013-06-17 04:45:00,53.1,49.9,28.97,ENE,68,0.0,0.0,89,0.00,,---,0.00,VWS V14.01,2013-06-17 08:45:00,
2013-06-17 04:50:00,52.9,49.7,28.97,ENE,68,0.0,0.0,89,0.00,,---,0.00,VWS V14.01,2013-06-17 08:50:00,
2013-06-17 04:55:00,52.9,49.7,28.97,ENE,68,0.0,0.0,89,0.00,,---,0.00,VWS V14.01,2013-06-17 08:55:00,
2013-06-17 05:00:00,52.7,49.5,28.97,ENE,68,0.0,0.0,89,0.00,,---,0.00,VWS V14.01,2013-06-17 09:00:00,
2013-06-17 05:05:00,52.5,49.4,28.97,ENE,68,0.0,0.0,89,0.00,,---,0.00,VWS V14.01,2013-06-17 09:05:00,
2013-06-17 05:10:00,52.5,49.4,28.97,ENE,68,0.0,0.0,89,0.00,,---,0.00,VWS V14.01,2013-06-17 09:10:00,
2013-06-17 05:15:00,52.7,49.5,28.97,ESE,112,2.2,2.2,89,0.00,,---,0.00,VWS V14.01,2013-06-17 09:15:00,
2013-06-17 05:20:00,52.9,49.7,28.97,ENE,68,1.3,1.3,89,0.00,,---,0.00,VWS V14.01,2013-06-17 09:20:00,
2013-06-17 05:25:00,53.1,49.9,28.97,ENE,68,0.0,0.0,89,0.00,,---,0.00,VWS V14.01,2013-06-17 09:25:00,
2013-06-17 05:30:00,52.9,49.7,28.97,ENE,68,0.0,0.0,89,0.00,,---,0.00,VWS V14.01,2013-06-17 09:30:00,
2013-06-17 05:35:00,52.7,49.5,28.97,ENE,68,0.0,0.0,89,0.00,,---,0.00,VWS V14.01,2013-06-17 09:35:00,
2013-06-17 05:40:00,52.3,49.2,28.97,ENE,68,0.0,0.0,89,0.00,,---,0.00,VWS V14.01,2013-06-17 09:40:00,
2013-06-17 05:45:00,52.3,49.2,28.97,ENE,68,0.0,0.0,89,0.00,,---,0.00,VWS V14.01,2013-06-17 09:45:00,
2013-06-17 05:50:00,52.3,49.2,28.97,ENE,68,0.0,0.0,89,0.00,,---,0.00,VWS V14.01,2013-06-17 09:50:00,
2013-06-17 05:55:00,52.3,49.2,28.97,ENE,68,0.0,0.0,89,0.00,,---,0.00,VWS V14.01,2013-06-17 09:55:00,
2013-06-17 06:00:00,52.2,49.0,28.97,ENE,68,0.0,0.0,89,0.00,,---,0.00,VWS V14.01,2013-06-17 10:00:00,
2013-06-17 06:05:00,52.2,49.0,28.97,ENE,68,0.0,0.0,89,0.00,,---,0.00,VWS V14.01,2013-06-17 10:05:00,
2013-06-17 06:10:00,52.3,49.2,28.97,ENE,68,0.0,0.0,89,0.00,,---,0.00,VWS V14.01,2013-06-17 10:10:00,
2013-06-17 06:15:00,52.7,49.5,28.97,ENE,68,0.0,0.0,89,0.00,,---,0.00,VWS V14.01,2013-06-17 10:15:00,
2013-06-17 06:20:00,53.1,49.9,28.97,ENE,68,0.0,0.0,89,0.00,,---,0.00,VWS V14.01,2013-06-17 10:20:00,
2013-06-17 06:25:00,53.1,49.9,28.97,ENE,68,0.0,0.0,89,0.00,,---,0.00,VWS V14.01,2013-06-17 10:25:00,
2013-06-17 06:30:00,53.2,50.1,28.97,ENE,68,0.0,0.0,89,0.00,,---,0.00,VWS V14.01,2013-06-17 10:30:00,
2013-06-17 06:35:00,53.6,50.4,28.97,ENE,68,0.0,0.0,89,0.00,,---,0.00,VWS V14.01,2013-06-17 10:35:00,
2013-06-17 06:40:00,53.8,50.6,28.97,ENE,68,0.0,0.0,89,0.00,,---,0.00,VWS V14.01,2013-06-17 10:40:00,
2013-06-17 06:45:00,53.8,50.6,28.97,ENE,68,0.0,0.0,89,0.00,,---,0.00,VWS V14.01,2013-06-17 10:45:00,
2013-06-17 06:50:00,54.0,50.8,28.97,ENE,68,0.0,0.0,89,0.00,,---,0.00,VWS V14.01,2013-06-17 10:50:00,
2013-06-17 06:55:00,54.1,51.3,28.97,ENE,68,0.0,0.0,90,0.00,,---,0.00,VWS V14.01,2013-06-17 10:55:00,
2013-06-17 07:00:00,54.3,51.5,28.97,ENE,68,0.0,0.0,90,0.00,,---,0.00,VWS V14.01,2013-06-17 11:00:00,
2013-06-17 07:05:00,54.3,51.5,28.97,ENE,68,0.0,0.0,90,0.00,,---,0.00,VWS V14.01,2013-06-17 11:05:00,
2013-06-17 07:10:00,54.5,51.6,28.97,ENE,68,0.0,0.0,90,0.00,,---,0.00,VWS V14.01,2013-06-17 11:10:00,
2013-06-17 07:15:00,54.5,51.6,28.97,ENE,68,0.0,0.0,90,0.00,,---,0.00,VWS V14.01,2013-06-17 11:15:00,
2013-06-17 07:20:00,54.7,51.8,28.97,ENE,68,0.0,0.0,90,0.00,,---,0.00,VWS V14.01,2013-06-17 11:20:00,
2013-06-17 07:25:00,54.7,51.8,28.97,NE,45,0.0,0.0,90,0.00,,---,0.00,VWS V14.01,2013-06-17 11:25:00,
2013-06-17 07:30:00,55.0,52.2,28.97,NNE,22,0.0,0.0,90,0.00,,---,0.00,VWS V14.01,2013-06-17 11:30:00,
2013-06-17 07:35:00,55.2,52.3,28.97,NNE,22,0.0,0.0,90,0.00,,---,0.00,VWS V14.01,2013-06-17 11:35:00,
2013-06-17 07:40:00,55.4,52.5,28.97,NNE,22,0.0,0.0,90,0.00,,---,0.00,VWS V14.01,2013-06-17 11:40:00,
2013-06-17 07:45:00,55.8,52.6,28.97,NNE,22,0.0,0.0,89,0.00,,---,0.00,VWS V14.01,2013-06-17 11:45:00,
2013-06-17 07:50:00,55.8,52.6,28.97,NNE,22,0.0,0.0,89,0.00,,---,0.00,VWS V14.01,2013-06-17 11:50:00,
2013-06-17 07:55:00,55.6,52.4,28.97,NNE,22,0.0,0.0,89,0.00,,---,0.00,VWS V14.01,2013-06-17 11:55:00,
2013-06-17 08:00:00,55.9,52.8,29.00,NNE,22,0.0,0.0,89,0.00,,---,0.00,VWS V14.01,2013-06-17 12:00:00,
2013-06-17 08:05:00,56.1,52.9,29.00,NNE,22,0.0,0.0,89,0.00,,---,0.00,VWS V14.01,2013-06-17 12:05:00,
2013-06-17 08:10:00,56.5,53.3,29.00,NNE,22,0.0,0.0,89,0.00,,---,0.00,VWS V14.01,2013-06-17 12:10:00,
2013-06-17 08:15:00,56.8,53.9,29.00,NNE,22,0.0,0.0,90,0.00,,---,0.00,VWS V14.01,2013-06-17 12:15:00,
2013-06-17 08:20:00,57.2,54.0,29.00,NNE,22,0.0,0.0,89,0.00,,---,0.00,VWS V14.01,2013-06-17 12:20:00,
2013-06-17 08:25:00,57.2,54.0,29.00,NNE,22,0.0,0.0,89,0.00,,---,0.00,VWS V14.01,2013-06-17 12:25:00,
2013-06-17 08:30:00,57.4,54.2,29.00,NNE,22,0.0,0.0,89,0.00,,---,0.00,VWS V14.01,2013-06-17 12:30:00,
2013-06-17 08:35:00,57.4,54.2,29.00,NNE,22,0.0,0.0,89,0.00,,---,0.00,VWS V14.01,2013-06-17 12:35:00,
2013-06-17 08:40:00,57.6,54.3,29.00,NNE,22,0.0,0.0,89,0.00,,---,0.00,VWS V14.01,2013-06-17 12:40:00,
2013-06-17 08:45:00,58.1,54.9,28.97,NNE,22,0.0,0.0,89,0.00,,---,0.00,VWS V14.01,2013-06-17 12:45:00,
2013-06-17 08:50:00,58.1,54.9,28.97,NNE,22,0.0,0.0,89,0.00,,---,0.00,VWS V14.01,2013-06-17 12:50:00,
2013-06-17 08:55:00,59.7,56.5,28.97,NE,45,0.0,0.0,89,0.00,,---,0.00,VWS V14.01,2013-06-17 12:55:00,
2013-06-17 09:00:00,62.4,58.8,28.97,NNE,22,0.0,0.0,88,0.00,,---,0.00,VWS V14.01,2013-06-17 13:00:00,
2013-06-17 09:05:00,63.9,59.9,28.97,NNE,22,0.0,0.0,87,0.00,,---,0.00,VWS V14.01,2013-06-17 13:05:00,
2013-06-17 09:10:00,64.2,60.3,28.97,NNE,22,0.0,0.0,87,0.00,,---,0.00,VWS V14.01,2013-06-17 13:10:00,
2013-06-17 09:15:00,64.0,59.8,28.97,NNE,22,0.0,0.0,86,0.00,,---,0.00,VWS V14.01,2013-06-17 13:15:00,
2013-06-17 09:20:00,64.2,59.6,28.97,WNW,292,0.0,0.0,85,0.00,,---,0.00,VWS V14.01,2013-06-17 13:20:00,
2013-06-17 09:25:00,64.4,59.5,28.97,WNW,292,0.0,0.0,84,0.00,,---,0.00,VWS V14.01,2013-06-17 13:25:00,
2013-06-17 09:30:00,66.0,61.4,28.97,WNW,292,0.0,0.0,85,0.00,,---,0.00,VWS V14.01,2013-06-17 13:30:00,
2013-06-17 09:35:00,64.8,59.1,28.97,WNW,292,0.0,0.0,82,0.00,,---,0.00,VWS V14.01,2013-06-17 13:35:00,
2013-06-17 09:40:00,67.5,62.1,28.97,WNW,292,0.9,0.9,83,0.00,,---,0.00,VWS V14.01,2013-06-17 13:40:00,
2013-06-17 09:45:00,68.5,62.8,28.97,SSE,158,0.0,0.0,82,0.00,,---,0.00,VWS V14.01,2013-06-17 13:45:00,
2013-06-17 09:50:00,68.7,63.0,28.97,South,180,0.0,0.0,82,0.00,,---,0.00,VWS V14.01,2013-06-17 13:50:00,
2013-06-17 09:55:00,67.5,60.7,28.97,ENE,68,0.0,0.0,79,0.00,,---,0.00,VWS V14.01,2013-06-17 13:55:00,
2013-06-17 10:00:00,66.9,60.2,28.97,SSE,158,0.0,0.0,79,0.00,,---,0.00,VWS V14.01,2013-06-17 14:00:00,
2013-06-17 10:05:00,68.9,61.8,28.97,NNW,338,0.0,0.0,78,0.00,,---,0.00,VWS V14.01,2013-06-17 14:05:00,
2013-06-17 10:10:00,71.2,63.7,28.97,West,270,3.6,3.6,77,0.00,,---,0.00,VWS V14.01,2013-06-17 14:10:00,
2013-06-17 10:15:00,72.7,63.5,28.97,WSW,248,2.0,2.5,73,0.00,,---,0.00,VWS V14.01,2013-06-17 14:15:00,
2013-06-17 10:19:00,71.2,61.4,28.97,WNW,292,5.8,5.8,71,0.00,,---,0.00,VWS V14.01,2013-06-17 14:19:00,
2013-06-17 10:24:00,73.6,63.6,28.97,WNW,292,4.3,4.3,71,0.00,,---,0.00,VWS V14.01,2013-06-17 14:24:00,
2013-06-17 10:29:00,71.4,60.3,28.97,West,270,4.9,6.3,68,0.00,,---,0.00,VWS V14.01,2013-06-17 14:29:00,
2013-06-17 10:34:00,70.7,58.4,28.97,East,90,2.2,2.2,65,0.00,,---,0.00,VWS V14.01,2013-06-17 14:34:00,
2013-06-17 10:39:00,70.7,60.5,28.97,NNW,338,0.0,0.0,70,0.00,,---,0.00,VWS V14.01,2013-06-17 14:39:00,
2013-06-17 10:44:00,71.2,59.7,28.97,West,270,3.8,3.8,67,0.00,,---,0.00,VWS V14.01,2013-06-17 14:44:00,
2013-06-17 10:49:00,72.5,60.5,28.97,West,270,4.3,4.3,66,0.00,,---,0.00,VWS V14.01,2013-06-17 14:49:00,
2013-06-17 10:54:00,75.4,60.5,28.97,WSW,248,3.1,5.4,60,0.00,,---,0.00,VWS V14.01,2013-06-17 14:54:00,
2013-06-17 10:59:00,73.4,58.7,28.97,SW,225,4.3,4.3,60,0.00,,---,0.00,VWS V14.01,2013-06-17 14:59:00,
2013-06-17 11:04:00,73.6,57.9,28.97,West,270,3.8,5.6,58,0.00,,---,0.00,VWS V14.01,2013-06-17 15:04:00,
2013-06-17 11:09:00,76.5,60.6,28.97,WNW,292,4.0,4.0,58,0.00,,---,0.00,VWS V14.01,2013-06-17 15:09:00,
2013-06-17 11:14:00,76.3,60.0,28.97,West,270,4.7,4.7,57,0.00,,---,0.00,VWS V14.01,2013-06-17 15:14:00,
2013-06-17 11:19:00,75.7,59.4,28.97,WSW,248,4.0,4.0,57,0.00,,---,0.00,VWS V14.01,2013-06-17 15:19:00,
2013-06-17 11:24:00,76.3,60.0,28.97,West,270,4.9,4.9,57,0.00,,---,0.00,VWS V14.01,2013-06-17 15:24:00,
2013-06-17 11:29:00,75.2,57.4,28.97,WNW,292,5.4,5.6,54,0.00,,---,0.00,VWS V14.01,2013-06-17 15:29:00,
2013-06-17 11:34:00,76.6,56.6,28.97,WSW,248,3.4,3.4,50,0.00,,---,0.00,VWS V14.01,2013-06-17 15:34:00,
2013-06-17 11:39:00,75.4,53.8,28.97,WSW,248,7.8,7.8,47,0.00,,---,0.00,VWS V14.01,2013-06-17 15:39:00,
2013-06-17 11:44:00,73.0,48.6,28.97,West,270,4.9,6.5,42,0.00,,---,0.00,VWS V14.01,2013-06-17 15:44:00,
2013-06-17 11:49:00,72.9,50.9,28.97,West,270,5.6,5.6,46,0.00,,---,0.00,VWS V14.01,2013-06-17 15:49:00,
2013-06-17 11:54:00,74.7,51.3,28.97,NW,315,5.6,5.6,44,0.00,,---,0.00,VWS V14.01,2013-06-17 15:54:00,
2013-06-17 11:59:00,79.2,54.8,28.97,WNW,292,4.0,4.7,43,0.00,,---,0.00,VWS V14.01,2013-06-17 15:59:00,
2013-06-17 12:04:00,77.7,50.1,28.97,West,270,7.6,8.1,38,0.00,,---,0.00,VWS V14.01,2013-06-17 16:04:00,
2013-06-17 12:09:00,79.3,53.0,28.97,SSW,202,4.5,6.3,40,0.00,,---,0.00,VWS V14.01,2013-06-17 16:09:00,
2013-06-17 12:14:00,80.6,54.1,28.97,WSW,248,3.6,3.6,40,0.00,,---,0.00,VWS V14.01,2013-06-17 16:14:00,
2013-06-17 12:19:00,81.9,55.9,28.97,WSW,248,6.5,6.5,41,0.00,,---,0.00,VWS V14.01,2013-06-17 16:19:00,
2013-06-17 12:24:00,81.5,53.5,28.97,WSW,248,5.6,5.8,38,0.00,,---,0.00,VWS V14.01,2013-06-17 16:24:00,
2013-06-17 12:29:00,81.1,50.9,28.97,SSE,158,3.8,3.8,35,0.00,,---,0.00,VWS V14.01,2013-06-17 16:29:00,
2013-06-17 12:34:00,80.8,50.6,28.97,WNW,292,3.8,3.8,35,0.00,,---,0.00,VWS V14.01,2013-06-17 16:34:00,
2013-06-17 12:39:00,79.3,50.1,28.97,West,270,3.8,4.9,36,0.00,,---,0.00,VWS V14.01,2013-06-17 16:39:00,
2013-06-17 12:44:00,79.2,49.2,28.97,WSW,248,4.9,5.4,35,0.00,,---,0.00,VWS V14.01,2013-06-17 16:44:00,
2013-06-17 12:49:00,78.1,47.5,28.97,West,270,5.6,5.6,34,0.00,,---,0.00,VWS V14.01,2013-06-17 16:49:00,
2013-06-17 12:54:00,81.5,50.5,28.97,WSW,248,3.6,6.3,34,0.00,,---,0.00,VWS V14.01,2013-06-17 16:54:00,
2013-06-17 12:59:00,81.7,49.8,28.97,West,270,5.6,5.6,33,0.00,,---,0.00,VWS V14.01,2013-06-17 16:59:00,
2013-06-17 13:00:00,81.7,49.8,28.97,West,270,5.6,5.6,33,0.00,,---,0.00,VWS V14.01,2013-06-17 17:00:00,
2013-06-17 13:01:00,81.7,49.8,28.97,West,270,5.6,5.6,33,0.00,,---,0.00,VWS V14.01,2013-06-17 17:01:00,
2013-06-17 13:02:00,82.6,52.2,28.97,WSW,248,4.0,4.0,35,0.00,,---,0.00,VWS V14.01,2013-06-17 17:02:00,
2013-06-17 13:03:00,82.6,52.2,28.97,WSW,248,5.8,5.8,35,0.00,,---,0.00,VWS V14.01,2013-06-17 17:03:00,
2013-06-17 13:04:00,83.3,52.8,28.97,SW,225,4.7,5.8,35,0.00,,---,0.00,VWS V14.01,2013-06-17 17:04:00,
2013-06-17 13:05:00,82.8,49.9,28.97,West,270,6.5,6.5,32,0.00,,---,0.00,VWS V14.01,2013-06-17 17:05:00,
2013-06-17 13:06:00,82.8,49.9,28.97,West,270,6.5,6.5,32,0.00,,---,0.00,VWS V14.01,2013-06-17 17:06:00,
2013-06-17 13:07:00,81.9,49.1,28.97,WSW,248,6.9,6.9,32,0.00,,---,0.00,VWS V14.01,2013-06-17 17:07:00,
2013-06-17 13:08:00,81.9,49.1,28.97,NNW,338,3.6,6.9,32,0.00,,---,0.00,VWS V14.01,2013-06-17 17:08:00,
2013-06-17 13:09:00,81.7,48.1,28.97,WSW,248,4.0,4.0,31,0.00,,---,0.00,VWS V14.01,2013-06-17 17:09:00,
2013-06-17 13:10:00,81.1,49.3,28.97,WSW,248,4.0,4.0,33,0.00,,---,0.00,VWS V14.01,2013-06-17 17:10:00,
2013-06-17 13:11:00,81.1,49.3,28.97,WNW,292,3.8,4.0,33,0.00,,---,0.00,VWS V14.01,2013-06-17 17:11:00,
2013-06-17 13:14:00,81.9,50.0,28.94,WNW,292,3.8,3.8,33,0.00,,---,0.00,VWS V14.01,2013-06-17 17:14:00,
2013-06-17 13:19:00,81.0,47.5,28.94,West,270,2.7,3.1,31,0.00,,---,0.00,VWS V14.01,2013-06-17 17:19:00,
2013-06-17 13:24:00,81.3,48.7,28.94,WSW,248,5.4,5.4,32,0.00,,---,0.00,VWS V14.01,2013-06-17 17:24:00,
2013-06-17 13:29:00,78.6,46.3,28.94,SW,225,4.5,4.5,32,0.00,,---,0.00,VWS V14.01,2013-06-17 17:29:00,
2013-06-17 13:34:00,76.1,44.9,28.94,WSW,248,3.8,4.9,33,0.00,,---,0.00,VWS V14.01,2013-06-17 17:34:00,
2013-06-17 13:39:00,77.5,46.2,28.94,WSW,248,5.8,5.8,33,0.00,,---,0.00,VWS V14.01,2013-06-17 17:39:00,
2013-06-17 13:44:00,77.4,46.0,28.97,NW,315,6.3,6.3,33,0.00,,---,0.00,VWS V14.01,2013-06-17 17:44:00,
2013-06-17 13:49:00,76.8,46.3,28.97,WSW,248,2.9,2.9,34,0.00,,---,0.00,VWS V14.01,2013-06-17 17:49:00,
2013-06-17 13:54:00,78.6,49.5,28.97,WSW,248,4.9,4.9,36,0.00,,---,0.00,VWS V14.01,2013-06-17 17:54:00,
2013-06-17 13:59:00,79.2,48.4,28.94,WNW,292,3.8,3.8,34,0.00,,---,0.00,VWS V14.01,2013-06-17 17:59:00,
2013-06-17 14:04:00,77.9,48.1,28.94,WSW,248,3.4,3.4,35,0.00,,---,0.00,VWS V14.01,2013-06-17 18:04:00,
2013-06-17 14:09:00,79.0,49.0,28.94,WNW,292,5.6,5.6,35,0.00,,---,0.00,VWS V14.01,2013-06-17 18:09:00,
2013-06-17 14:14:00,76.6,47.7,28.94,WSW,248,3.1,3.1,36,0.00,,---,0.00,VWS V14.01,2013-06-17 18:14:00,
2013-06-17 14:19:00,73.9,45.3,28.94,NNW,338,5.8,5.8,36,0.00,,---,0.00,VWS V14.01,2013-06-17 18:19:00,
2013-06-17 14:24:00,72.7,46.3,28.94,West,270,5.4,5.4,39,0.00,,---,0.00,VWS V14.01,2013-06-17 18:24:00,
2013-06-17 14:29:00,72.1,45.2,28.97,WSW,248,2.5,2.5,38,0.00,,---,0.00,VWS V14.01,2013-06-17 18:29:00,
2013-06-17 14:34:00,71.4,47.2,28.97,NNW,338,0.0,0.0,42,0.00,,---,0.00,VWS V14.01,2013-06-17 18:34:00,
2013-06-17 14:39:00,70.9,47.3,28.97,WNW,292,2.0,2.0,43,0.00,,---,0.00,VWS V14.01,2013-06-17 18:39:00,
2013-06-17 14:44:00,71.4,48.4,28.97,WSW,248,2.9,2.9,44,0.00,,---,0.00,VWS V14.01,2013-06-17 18:44:00,
2013-06-17 14:49:00,72.0,48.9,28.97,WSW,248,2.0,2.9,44,0.00,,---,0.00,VWS V14.01,2013-06-17 18:49:00,
2013-06-17 14:54:00,72.7,50.1,28.97,WSW,248,3.6,3.6,45,0.00,,---,0.00,VWS V14.01,2013-06-17 18:54:00,
2013-06-17 14:59:00,73.0,50.5,28.97,WSW,248,0.9,2.9,45,0.00,,---,0.00,VWS V14.01,2013-06-17 18:59:00,
2013-06-17 15:04:00,73.0,51.1,28.97,WSW,248,0.0,2.0,46,0.00,,---,0.00,VWS V14.01,2013-06-17 19:04:00,
2013-06-17 15:09:00,72.7,50.1,28.97,SSW,202,0.0,0.0,45,0.00,,---,0.00,VWS V14.01,2013-06-17 19:09:00,
2013-06-17 15:14:00,72.9,50.3,28.97,SW,225,0.0,1.6,45,0.00,,---,0.00,VWS V14.01,2013-06-17 19:14:00,
2013-06-17 15:19:00,72.1,49.0,28.97,NW,315,1.3,1.3,44,0.00,,---,0.00,VWS V14.01,2013-06-17 19:19:00,
2013-06-17 15:24:00,72.0,48.9,28.97,SW,225,0.0,0.0,44,0.00,,---,0.00,VWS V14.01,2013-06-17 19:24:00,
2013-06-17 15:29:00,73.0,50.5,28.97,West,270,0.0,0.0,45,0.00,,---,0.00,VWS V14.01,2013-06-17 19:29:00,
2013-06-17 15:34:00,74.1,50.2,28.97,West,270,4.3,4.3,43,0.00,,---,0.00,VWS V14.01,2013-06-17 19:34:00,
2013-06-17 15:39:00,73.4,48.9,28.97,WSW,248,2.9,4.3,42,0.00,,---,0.00,VWS V14.01,2013-06-17 19:39:00,
2013-06-17 15:44:00,76.1,52.0,28.97,WNW,292,4.3,4.3,43,0.00,,---,0.00,VWS V14.01,2013-06-17 19:44:00,
2013-06-17 15:49:00,76.8,50.0,28.97,WSW,248,5.4,5.4,39,0.00,,---,0.00,VWS V14.01,2013-06-17 19:49:00,
2013-06-17 15:54:00,77.0,50.2,28.97,WNW,292,3.6,3.6,39,0.00,,---,0.00,VWS V14.01,2013-06-17 19:54:00,
2013-06-17 15:59:00,76.6,49.8,28.97,North,0,0.0,1.1,39,0.00,,---,0.00,VWS V14.01,2013-06-17 19:59:00,
2013-06-17 16:04:00,77.4,49.8,28.97,South,180,2.9,2.9,38,0.00,,---,0.00,VWS V14.01,2013-06-17 20:04:00,
2013-06-17 16:09:00,74.5,46.5,28.97,WSW,248,2.5,2.9,37,0.00,,---,0.00,VWS V14.01,2013-06-17 20:09:00,
2013-06-17 16:14:00,77.2,48.9,28.97,WSW,248,5.6,5.6,37,0.00,,---,0.00,VWS V14.01,2013-06-17 20:14:00,
2013-06-17 16:18:00,76.8,48.6,28.97,SSW,202,2.9,4.7,37,0.00,,---,0.00,VWS V14.01,2013-06-17 20:18:00,
2013-06-17 16:23:00,77.7,47.9,28.97,WSW,248,4.7,4.7,35,0.00,,---,0.00,VWS V14.01,2013-06-17 20:23:00,
2013-06-17 16:28:00,77.5,47.0,28.97,SSW,202,5.4,5.4,34,0.00,,---,0.00,VWS V14.01,2013-06-17 20:28:00,
2013-06-17 16:33:00,76.1,45.7,28.97,WNW,292,4.0,4.0,34,0.00,,---,0.00,VWS V14.01,2013-06-17 20:33:00,
2013-06-17 16:38:00,77.9,48.1,28.97,WNW,292,4.0,4.0,35,0.00,,---,0.00,VWS V14.01,2013-06-17 20:38:00,
2013-06-17 16:43:00,76.6,46.2,28.97,NE,45,3.1,3.1,34,0.00,,---,0.00,VWS V14.01,2013-06-17 20:43:00,
2013-06-17 16:48:00,76.1,46.5,28.97,WSW,248,4.0,4.0,35,0.00,,---,0.00,VWS V14.01,2013-06-17 20:48:00,
2013-06-17 16:53:00,76.1,45.7,28.97,SW,225,2.9,4.3,34,0.00,,---,0.00,VWS V14.01,2013-06-17 20:53:00,
2013-06-17 16:58:00,76.5,46.0,28.97,WSW,248,4.3,4.3,34,0.00,,---,0.00,VWS V14.01,2013-06-17 20:58:00,
2013-06-17 17:03:00,75.6,44.5,28.97,NNW,338,1.1,2.9,33,0.00,,---,0.00,VWS V14.01,2013-06-17 21:03:00,
2013-06-17 17:08:00,75.6,46.0,28.97,East,90,2.9,2.9,35,0.00,,---,0.00,VWS V14.01,2013-06-17 21:08:00,
2013-06-17 17:13:00,75.2,45.7,28.97,WSW,248,2.7,2.7,35,0.00,,---,0.00,VWS V14.01,2013-06-17 21:13:00,
2013-06-17 17:18:00,74.3,45.7,28.97,West,270,3.1,4.3,36,0.00,,---,0.00,VWS V14.01,2013-06-17 21:18:00,
2013-06-17 17:23:00,73.8,44.4,28.97,West,270,1.1,1.3,35,0.00,,---,0.00,VWS V14.01,2013-06-17 21:23:00,
2013-06-17 17:28:00,73.9,45.3,28.97,SE,135,4.9,4.9,36,0.00,,---,0.00,VWS V14.01,2013-06-17 21:28:00,
2013-06-17 17:33:00,73.4,44.1,28.97,WNW,292,3.8,3.8,35,0.00,,---,0.00,VWS V14.01,2013-06-17 21:33:00,
2013-06-17 17:38:00,73.2,45.4,28.97,WSW,248,2.5,2.5,37,0.00,,---,0.00,VWS V14.01,2013-06-17 21:38:00,
2013-06-17 17:43:00,73.0,44.5,28.97,WSW,248,3.1,3.1,36,0.00,,---,0.00,VWS V14.01,2013-06-17 21:43:00,
2013-06-17 17:48:00,72.0,45.0,28.97,SW,225,0.9,3.4,38,0.00,,---,0.00,VWS V14.01,2013-06-17 21:48:00,
2013-06-17 17:53:00,71.1,44.2,28.97,SW,225,2.5,2.5,38,0.00,,---,0.00,VWS V14.01,2013-06-17 21:53:00,
2013-06-17 17:58:00,70.9,44.0,28.97,WSW,248,2.7,2.7,38,0.00,,---,0.00,VWS V14.01,2013-06-17 21:58:00,
2013-06-17 18:03:00,72.0,45.7,28.97,SW,225,4.3,4.3,39,0.00,,---,0.00,VWS V14.01,2013-06-17 22:03:00,
2013-06-17 18:08:00,72.5,46.8,28.97,WSW,248,2.5,2.5,40,0.00,,---,0.00,VWS V14.01,2013-06-17 22:08:00,
2013-06-17 18:13:00,71.8,45.5,28.97,NW,315,2.9,2.9,39,0.00,,---,0.00,VWS V14.01,2013-06-17 22:13:00,
2013-06-17 18:18:00,71.4,45.9,28.97,WSW,248,2.9,2.9,40,0.00,,---,0.00,VWS V14.01,2013-06-17 22:18:00,
2013-06-17 18:23:00,70.5,45.1,28.97,NW,315,0.0,0.0,40,0.00,,---,0.00,VWS V14.01,2013-06-17 22:23:00,
2013-06-17 18:28:00,70.0,45.9,28.97,WNW,292,2.0,4.0,42,0.00,,---,0.00,VWS V14.01,2013-06-17 22:28:00,
2013-06-17 18:33:00,69.4,45.4,28.97,SW,225,4.0,4.0,42,0.00,,---,0.00,VWS V14.01,2013-06-17 22:33:00,
2013-06-17 18:38:00,68.9,44.9,28.97,WSW,248,0.0,0.9,42,0.00,,---,0.00,VWS V14.01,2013-06-17 22:38:00,
2013-06-17 18:43:00,69.1,45.7,29.00,SSW,202,0.0,0.0,43,0.00,,---,0.00,VWS V14.01,2013-06-17 22:43:00,
2013-06-17 18:48:00,68.5,44.6,29.00,WSW,248,2.5,2.5,42,0.00,,---,0.00,VWS V14.01,2013-06-17 22:48:00,
2013-06-17 18:53:00,68.2,44.9,29.00,SE,135,0.9,0.9,43,0.00,,---,0.00,VWS V14.01,2013-06-17 22:53:00,
2013-06-17 18:58:00,67.8,44.5,29.00,SSE,158,1.1,1.1,43,0.00,,---,0.00,VWS V14.01,2013-06-17 22:58:00,
2013-06-17 19:03:00,67.8,44.5,29.00,WNW,292,0.0,0.0,43,0.00,,---,0.00,VWS V14.01,2013-06-17 23:03:00,
2013-06-17 19:08:00,67.5,44.8,29.00,West,270,1.3,1.6,44,0.00,,---,0.00,VWS V14.01,2013-06-17 23:08:00,
2013-06-17 19:13:00,66.9,44.3,29.00,WSW,248,0.0,0.0,44,0.00,,---,0.00,VWS V14.01,2013-06-17 23:13:00,
2013-06-17 19:18:00,66.9,44.9,29.00,WSW,248,1.3,1.3,45,0.00,,---,0.00,VWS V14.01,2013-06-17 23:18:00,
2013-06-17 19:23:00,66.9,44.9,29.00,NNW,338,2.0,2.0,45,0.00,,---,0.00,VWS V14.01,2013-06-17 23:23:00,
2013-06-17 19:28:00,66.7,44.8,29.00,WSW,248,0.0,0.0,45,0.00,,---,0.00,VWS V14.01,2013-06-17 23:28:00,
2013-06-17 19:33:00,66.7,44.8,29.00,SW,225,1.1,1.1,45,0.00,,---,0.00,VWS V14.01,2013-06-17 23:33:00,
2013-06-17 19:38:00,66.4,45.0,29.00,SW,225,0.0,0.0,46,0.00,,---,0.00,VWS V14.01,2013-06-17 23:38:00,
2013-06-17 19:43:00,66.0,45.8,29.00,WSW,248,0.9,0.9,48,0.00,,---,0.00,VWS V14.01,2013-06-17 23:43:00,
2013-06-17 19:48:00,65.8,45.6,29.00,West,270,1.1,2.2,48,0.00,,---,0.00,VWS V14.01,2013-06-17 23:48:00,
2013-06-17 19:53:00,65.7,46.0,29.00,SSE,158,0.0,0.0,49,0.00,,---,0.00,VWS V14.01,2013-06-17 23:53:00,
2013-06-17 19:58:00,65.5,45.8,29.03,ESE,112,0.0,0.0,49,0.00,,---,0.00,VWS V14.01,2013-06-17 23:58:00,
2013-06-17 20:03:00,65.1,46.0,29.03,ESE,112,0.0,0.0,50,0.00,,---,0.00,VWS V14.01,2013-06-18 00:03:00,
2013-06-17 20:08:00,65.1,45.0,29.03,WSW,248,2.0,2.0,48,0.00,,---,0.00,VWS V14.01,2013-06-18 00:08:00,
2013-06-17 20:13:00,64.8,45.2,29.03,NNE,22,0.0,0.0,49,0.00,,---,0.00,VWS V14.01,2013-06-18 00:13:00,
2013-06-17 20:18:00,64.6,45.0,29.03,SE,135,2.5,2.5,49,0.00,,---,0.00,VWS V14.01,2013-06-18 00:18:00,
2013-06-17 20:23:00,64.4,44.3,29.03,ESE,112,2.5,2.5,48,0.00,,---,0.00,VWS V14.01,2013-06-18 00:23:00,
2013-06-17 20:28:00,64.2,44.1,29.03,SW,225,0.0,0.0,48,0.00,,---,0.00,VWS V14.01,2013-06-18 00:28:00,
2013-06-17 20:33:00,64.2,44.1,29.03,ESE,112,2.9,2.9,48,0.00,,---,0.00,VWS V14.01,2013-06-18 00:33:00,
2013-06-17 20:38:00,64.0,44.5,29.03,North,0,0.0,0.0,49,0.00,,---,0.00,VWS V14.01,2013-06-18 00:38:00,
2013-06-17 20:43:00,63.7,44.7,29.03,SSW,202,0.0,0.0,50,0.00,,---,0.00,VWS V14.01,2013-06-18 00:43:00,
2013-06-17 20:48:00,63.3,43.8,29.03,West,270,0.0,0.0,49,0.00,,---,0.00,VWS V14.01,2013-06-18 00:48:00,
2013-06-17 20:53:00,63.0,43.5,29.03,WSW,248,1.6,1.6,49,0.00,,---,0.00,VWS V14.01,2013-06-18 00:53:00,
2013-06-17 20:58:00,63.0,43.5,29.03,NNW,338,1.6,2.0,49,0.00,,---,0.00,VWS V14.01,2013-06-18 00:58:00,
2013-06-17 21:03:00,63.0,43.5,29.03,SSE,158,0.0,0.0,49,0.00,,---,0.00,VWS V14.01,2013-06-18 01:03:00,
2013-06-17 21:08:00,62.6,43.7,29.03,South,180,1.1,1.1,50,0.00,,---,0.00,VWS V14.01,2013-06-18 01:08:00,
2013-06-17 21:13:00,62.4,43.5,29.03,SSE,158,0.0,1.1,50,0.00,,---,0.00,VWS V14.01,2013-06-18 01:13:00,
2013-06-17 21:18:00,61.9,43.6,29.03,ESE,112,0.0,0.0,51,0.00,,---,0.00,VWS V14.01,2013-06-18 01:18:00,
2013-06-17 21:23:00,61.7,43.4,29.03,North,0,0.0,0.0,51,0.00,,---,0.00,VWS V14.01,2013-06-18 01:23:00,
2013-06-17 21:28:00,61.5,43.2,29.03,NNW,338,0.0,0.0,51,0.00,,---,0.00,VWS V14.01,2013-06-18 01:28:00,
2013-06-17 21:33:00,61.0,42.7,29.03,ESE,112,1.3,1.3,51,0.00,,---,0.00,VWS V14.01,2013-06-18 01:33:00,
2013-06-17 21:38:00,60.4,42.8,29.03,ESE,112,0.0,0.0,52,0.00,,---,0.00,VWS V14.01,2013-06-18 01:38:00,
2013-06-17 21:43:00,60.1,42.4,29.03,East,90,0.0,0.0,52,0.00,,---,0.00,VWS V14.01,2013-06-18 01:43:00,
2013-06-17 21:48:00,59.5,42.4,29.06,ESE,112,2.2,2.2,53,0.00,,---,0.00,VWS V14.01,2013-06-18 01:48:00,
2013-06-17 21:53:00,59.5,42.4,29.06,ESE,112,0.0,0.0,53,0.00,,---,0.00,VWS V14.01,2013-06-18 01:53:00,
2013-06-17 21:58:00,59.5,42.9,29.06,ESE,112,0.0,0.0,54,0.00,,---,0.00,VWS V14.01,2013-06-18 01:58:00,
2013-06-17 22:03:00,59.7,43.1,29.06,ESE,112,0.0,0.0,54,0.00,,---,0.00,VWS V14.01,2013-06-18 02:03:00,
2013-06-17 22:08:00,59.9,43.7,29.06,ESE,112,0.0,0.0,55,0.00,,---,0.00,VWS V14.01,2013-06-18 02:08:00,
2013-06-17 22:13:00,59.7,44.0,29.06,ESE,112,0.0,0.0,56,0.00,,---,0.00,VWS V14.01,2013-06-18 02:13:00,
2013-06-17 22:18:00,59.9,44.7,29.06,ESE,112,0.0,0.0,57,0.00,,---,0.00,VWS V14.01,2013-06-18 02:18:00,
2013-06-17 22:23:00,59.7,44.5,29.06,ESE,112,0.0,0.0,57,0.00,,---,0.00,VWS V14.01,2013-06-18 02:23:00,
2013-06-17 22:28:00,59.7,44.5,29.06,ESE,112,0.0,0.0,57,0.00,,---,0.00,VWS V14.01,2013-06-18 02:28:00,
2013-06-17 22:33:00,59.7,44.9,29.06,ESE,112,0.0,0.0,58,0.00,,---,0.00,VWS V14.01,2013-06-18 02:33:00,
2013-06-17 22:38:00,59.7,45.4,29.06,ESE,112,0.0,0.0,59,0.00,,---,0.00,VWS V14.01,2013-06-18 02:38:00,
2013-06-17 22:43:00,59.7,45.8,29.06,ESE,112,0.0,0.0,60,0.00,,---,0.00,VWS V14.01,2013-06-18 02:43:00,
2013-06-17 22:47:00,59.7,45.4,29.06,ESE,112,0.0,0.0,59,0.00,,---,0.00,VWS V14.01,2013-06-18 02:47:00,
2013-06-17 22:52:00,59.7,45.4,29.06,ESE,112,0.0,0.0,59,0.00,,---,0.00,VWS V14.01,2013-06-18 02:52:00,
2013-06-17 22:57:00,59.5,44.8,29.06,ESE,112,0.0,0.0,58,0.00,,---,0.00,VWS V14.01,2013-06-18 02:57:00,
2013-06-17 23:02:00,59.4,44.6,29.06,ESE,112,0.0,0.0,58,0.00,,---,0.00,VWS V14.01,2013-06-18 03:02:00,
2013-06-17 23:07:00,59.2,44.4,29.06,ESE,112,0.0,0.0,58,0.00,,---,0.00,VWS V14.01,2013-06-18 03:07:00,
2013-06-17 23:12:00,59.0,45.2,29.06,ESE,112,0.0,0.0,60,0.00,,---,0.00,VWS V14.01,2013-06-18 03:12:00,
2013-06-17 23:17:00,58.8,45.4,29.09,ESE,112,0.0,0.0,61,0.00,,---,0.00,VWS V14.01,2013-06-18 03:17:00,
2013-06-17 23:22:00,58.6,45.2,29.09,ESE,112,0.0,0.0,61,0.00,,---,0.00,VWS V14.01,2013-06-18 03:22:00,
2013-06-17 23:27:00,58.5,45.1,29.09,ESE,112,0.0,0.0,61,0.00,,---,0.00,VWS V14.01,2013-06-18 03:27:00,
2013-06-17 23:32:00,58.1,44.7,29.09,ESE,112,0.0,0.0,61,0.00,,---,0.00,VWS V14.01,2013-06-18 03:32:00,
2013-06-17 23:37:00,58.1,44.7,29.09,ESE,112,0.0,0.0,61,0.00,,---,0.00,VWS V14.01,2013-06-18 03:37:00,
2013-06-17 23:42:00,57.9,44.6,29.09,NW,315,0.0,0.0,61,0.00,,---,0.00,VWS V14.01,2013-06-18 03:42:00,
2013-06-17 23:47:00,57.7,44.4,29.09,SE,135,0.0,0.0,61,0.00,,---,0.00,VWS V14.01,2013-06-18 03:47:00,
2013-06-17 23:52:00,57.6,44.2,29.09,SE,135,0.0,0.0,61,0.00,,---,0.00,VWS V14.01,2013-06-18 03:52:00,
2013-06-17 23:57:00,57.6,44.2,29.09,SE,135,0.0,0.0,61,0.00,,---,0.00,VWS V14.01,2013-06-18 03:57:00,